岩国 の空港の天気 - METARとTAF

岩国飛行場 ( RJOI / IWK ) - 山口県岩国市
飛行場実況気象(Metar)
観測時間12/04 09:55 JST (12/04 00:55 UTC)
風向・風速静穏 0m/s
視程10km以上
天気現象
少しの雲 雲底高度 300m
少しの雲 雲底高度 760m
少しの雲 雲底高度 3660m
気温11.1℃
湿度54%
気圧1025.2hPa
METARRJOI 040055Z 00000KT 9999 FEW010 FEW025 FEW120 11/02 A3028 RMK SLP252 T01110022
過去の天気等 Google飛行場航空写真 Wunderground天気予報

過去48時間のMETAR

飛行場予報(TAF)
発表時間: -
4日12時 JST ~ 4日18時 JST に一時的に
風向・風速不定 3m/s
全天の4割程度の雲 雲底高度 610m
全天の8割程度の雲 雲底高度 1220m
全天の8割程度の雲 雲底高度 4270m
4日18時 JST から
風向・風速西北西 5m/s
視程10km以上
全天の4割程度の雲 雲底高度 610m
全天の8割程度の雲 雲底高度 1220m
全天の8割程度の雲 雲底高度 4270m
5日1時 JST ~ 5日3時 JST に徐々に
少しの雲 雲底高度 610m
全天の4割程度の雲 雲底高度 7320m
TAF RJOI 0321/0421 32009KT 9999 FEW030 BKN060 620303 650602 521209 522109 QNH3019INS
TEMPO 0403/0409 VRB06KT SCT020 BKN040 BKN140
FM040900 30009KT 9999 SCT020 BKN040 BKN140 650403 651405 521209 532109 QNH3024INS
BECMG 0416/0418 FEW020 SCT240 600000 521006 532009 QNH3025INS T05/0321Z T13/0405Z
日本の空港のMETAR・TAFへのリンク

RJTT 東京国際空港
RJAA 新東京国際空港
RJBB 関西国際空港
RJOO 大阪空港
RJGG 中部国際空港
RJCC 新千歳空港
RJFF 福岡空港
ROAH 那覇空港


RJEC 旭川空港
RJCH 函館空港
RJCK 釧路空港
RJCM 女満別空港
RJCB 帯広空港
RJSA 青森空港
RJSS 仙台空港
RJSK 秋田空港
RJSF 福島空港
RJAH 茨城空港
RJSN 新潟空港
RJNT 富山空港
RJNK 小松飛行場
RJNS 静岡空港
RJOH 美保飛行場
RJOC 出雲空港
RJOB 岡山空港
RJOA 広島空港
RJOI 岩国飛行場
RJOT 高松空港
RJOM 松山空港
RJOK 高知空港
RJFR 北九州空港
RJFT 熊本空港
RJFU 長崎空港
RJFS 佐賀空港
RJFO 大分空港
RJFM 宮崎空港
RJFK 鹿児島空港
ROIG 石垣島空港
RJTY 横田飛行場
ROTM 普天間飛行場
RODN 嘉手納飛行場